createdAt,value
2022-08-29T00:00:23.750Z,101241.78
2022-08-29T00:02:53.848Z,101243.97
2022-08-29T00:05:24.940Z,101246.19
2022-08-29T00:07:52.957Z,101249.22
2022-08-29T00:10:21.654Z,101251.63
2022-08-29T00:12:48.908Z,101249.63
2022-08-29T00:15:16.627Z,101252.25
2022-08-29T00:17:44.338Z,101255.59
2022-08-29T00:20:15.336Z,101252.16
2022-08-29T00:22:42.563Z,101259.59
2022-08-29T00:25:10.726Z,101255.78
2022-08-29T00:27:37.774Z,101254.16
2022-08-29T00:30:06.443Z,101247.19
2022-08-29T00:32:36.553Z,101250.91
2022-08-29T00:35:14.550Z,101247.50
2022-08-29T00:37:42.332Z,101245.06
2022-08-29T00:40:13.527Z,101259.66
2022-08-29T00:42:40.729Z,101247.34
2022-08-29T00:45:11.028Z,101245.91
2022-08-29T00:47:43.305Z,101250.16
2022-08-29T00:50:22.477Z,101250.53
2022-08-29T00:52:49.456Z,101253.25
2022-08-29T00:55:22.411Z,101259.19
2022-08-29T00:57:56.320Z,101258.78
2022-08-29T01:00:24.562Z,101252.00
2022-08-29T01:02:51.462Z,101256.22
2022-08-29T01:05:19.827Z,101250.69
2022-08-29T01:07:48.472Z,101250.56
2022-08-29T01:10:36.234Z,101246.50
2022-08-29T01:13:04.906Z,101255.34
2022-08-29T01:15:33.369Z,101250.41
2022-08-29T01:18:02.686Z,101245.13
2022-08-29T01:20:47.823Z,101245.34
2022-08-29T01:23:26.946Z,101246.56
2022-08-29T01:25:54.923Z,101252.97
2022-08-29T01:28:30.381Z,101252.09
2022-08-29T01:31:10.513Z,101242.63
2022-08-29T01:33:42.604Z,101247.72
2022-08-29T01:36:12.685Z,101249.38
2022-08-29T01:38:40.300Z,101251.94
2022-08-29T01:41:07.803Z,101258.34
2022-08-29T01:43:43.983Z,101251.50
2022-08-29T01:46:14.190Z,101257.97
2022-08-29T01:48:44.022Z,101256.47
2022-08-29T01:51:12.086Z,101260.34
2022-08-29T01:53:39.322Z,101261.47
2022-08-29T01:56:18.545Z,101261.28
2022-08-29T01:58:47.466Z,101263.66
2022-08-29T02:01:17.951Z,101268.81
2022-08-29T02:03:45.301Z,101265.19
2022-08-29T02:06:12.763Z,101259.03
2022-08-29T02:08:41.595Z,101272.47
2022-08-29T02:11:10.245Z,101276.50
2022-08-29T02:13:38.454Z,101272.84
2022-08-29T02:16:05.461Z,101267.13
2022-08-29T02:18:33.257Z,101264.78
2022-08-29T02:21:01.009Z,101267.13
2022-08-29T02:23:31.195Z,101271.41
2022-08-29T02:25:58.590Z,101264.13
2022-08-29T02:28:25.302Z,101263.47
2022-08-29T02:30:56.317Z,101267.97
2022-08-29T02:33:24.680Z,101270.75
2022-08-29T02:35:52.187Z,101280.38
2022-08-29T02:38:19.458Z,101278.22
2022-08-29T02:40:47.197Z,101280.78
2022-08-29T02:43:16.576Z,101283.34
2022-08-29T02:45:43.808Z,101281.88
2022-08-29T02:48:14.065Z,101287.19
2022-08-29T02:50:43.963Z,101280.13
2022-08-29T02:53:11.872Z,101285.50
2022-08-29T02:55:38.857Z,101281.84
2022-08-29T02:58:05.735Z,101280.38
2022-08-29T03:00:33.822Z,101275.25
2022-08-29T03:03:01.009Z,101281.84
2022-08-29T03:05:33.186Z,101283.56
2022-08-29T03:07:59.892Z,101279.94
2022-08-29T03:10:27.174Z,101271.81
2022-08-29T03:12:54.661Z,101272.25
2022-08-29T03:15:22.438Z,101278.00
2022-08-29T03:17:49.855Z,101283.13
2022-08-29T03:20:19.243Z,101282.50
2022-08-29T03:22:46.940Z,101275.88
2022-08-29T03:25:14.797Z,101278.66
2022-08-29T03:27:41.524Z,101276.31
2022-08-29T03:30:11.094Z,101273.97
2022-08-29T03:32:38.255Z,101276.72
2022-08-29T03:35:06.159Z,101272.66
2022-08-29T03:37:32.798Z,101263.25
2022-08-29T03:39:59.687Z,101270.31
2022-08-29T03:42:26.946Z,101262.41
2022-08-29T03:44:53.572Z,101273.53
2022-08-29T03:47:20.162Z,101265.63
2022-08-29T03:49:46.745Z,101265.78
2022-08-29T03:52:13.719Z,101259.50
2022-08-29T03:54:40.448Z,101261.09
2022-08-29T03:57:08.115Z,101263.25
2022-08-29T03:59:35.659Z,101247.47
2022-08-29T04:02:02.665Z,101252.13
2022-08-29T04:04:48.112Z,101249.63
2022-08-29T04:07:15.137Z,101255.16
2022-08-29T04:09:41.892Z,101253.88
2022-08-29T04:12:11.393Z,101258.34
2022-08-29T04:14:39.115Z,101252.56
2022-08-29T04:17:06.391Z,101249.63
2022-08-29T04:19:35.105Z,101257.06
2022-08-29T04:22:02.946Z,101254.81
2022-08-29T04:24:34.132Z,101259.38
2022-08-29T04:27:01.452Z,101254.28
2022-08-29T04:29:28.358Z,101259.81
2022-08-29T04:31:55.186Z,101265.13
2022-08-29T04:34:21.882Z,101267.28
2022-08-29T04:36:48.577Z,101269.09
2022-08-29T04:39:15.993Z,101262.25
2022-08-29T04:41:43.132Z,101266.94
2022-08-29T04:44:12.226Z,101264.19
2022-08-29T04:46:39.761Z,101257.16
2022-08-29T04:49:06.587Z,101268.31
2022-08-29T04:51:35.492Z,101269.38
2022-08-29T04:54:03.867Z,101260.06
2022-08-29T04:56:30.826Z,101269.84
2022-08-29T04:58:57.723Z,101270.41
2022-08-29T05:01:26.918Z,101266.31
2022-08-29T05:03:55.113Z,101267.88
2022-08-29T05:06:23.423Z,101274.44
2022-08-29T05:08:59.250Z,101268.59
2022-08-29T05:11:29.392Z,101275.16
2022-08-29T05:13:56.135Z,101265.66
2022-08-29T05:16:22.863Z,101272.91
2022-08-29T05:18:49.985Z,101278.00
2022-08-29T05:21:27.044Z,101283.56
2022-08-29T05:23:56.436Z,101275.97
2022-08-29T05:26:23.520Z,101287.50
2022-08-29T05:28:50.430Z,101283.25
2022-08-29T05:31:17.661Z,101284.75
2022-08-29T05:33:44.484Z,101288.34
2022-08-29T05:36:11.237Z,101293.81
2022-08-29T05:38:38.052Z,101297.00
2022-08-29T05:41:05.232Z,101296.16
2022-08-29T05:43:32.689Z,101297.84
2022-08-29T05:46:04.498Z,101303.25
2022-08-29T05:48:32.768Z,101302.44
2022-08-29T05:51:00.032Z,101300.69
2022-08-29T05:53:27.241Z,101293.78
2022-08-29T05:55:54.399Z,101291.81
2022-08-29T05:58:21.246Z,101293.91
2022-08-29T06:00:48.567Z,101285.69
2022-08-29T06:03:16.321Z,101287.41
2022-08-29T06:05:43.257Z,101298.06
2022-08-29T06:08:11.217Z,101305.00
2022-08-29T06:10:43.412Z,101314.63
2022-08-29T06:13:10.484Z,101319.09
2022-08-29T06:15:37.195Z,101318.06
2022-08-29T06:18:04.587Z,101313.84
2022-08-29T06:20:31.293Z,101313.22
2022-08-29T06:22:57.963Z,101312.53
2022-08-29T06:25:40.547Z,101312.34
2022-08-29T06:28:08.127Z,101314.47
2022-08-29T06:30:34.928Z,101312.34
2022-08-29T06:33:02.376Z,101309.16
2022-08-29T06:35:29.904Z,101310.44
2022-08-29T06:37:56.733Z,101310.63
2022-08-29T06:40:23.386Z,101298.72
2022-08-29T06:42:50.189Z,101305.97
2022-08-29T06:45:17.302Z,101303.84
2022-08-29T06:47:46.420Z,101304.25
2022-08-29T06:50:14.450Z,101311.50
2022-08-29T06:52:41.273Z,101315.78
2022-08-29T06:55:13.908Z,101316.78
2022-08-29T06:57:44.462Z,101317.44
2022-08-29T07:00:21.737Z,101324.22
2022-08-29T07:02:51.408Z,101324.63
2022-08-29T07:05:21.310Z,101333.38
2022-08-29T07:07:48.286Z,101333.53
2022-08-29T07:10:18.779Z,101344.69
2022-08-29T07:12:48.910Z,101343.41
2022-08-29T07:15:15.537Z,101334.91
2022-08-29T07:17:42.543Z,101338.25
2022-08-29T07:20:10.300Z,101339.50
2022-08-29T07:22:37.330Z,101342.44
2022-08-29T07:25:04.209Z,101339.06
2022-08-29T07:27:30.908Z,101338.88
2022-08-29T07:29:58.154Z,101342.88
2022-08-29T07:32:25.998Z,101339.25
2022-08-29T07:34:55.929Z,101338.13
2022-08-29T07:37:23.358Z,101341.91
2022-08-29T07:39:49.961Z,101343.91
2022-08-29T07:42:16.989Z,101338.28
2022-08-29T07:44:43.688Z,101339.63
2022-08-29T07:47:10.520Z,101338.56
2022-08-29T07:49:41.508Z,101346.56
2022-08-29T07:52:08.525Z,101335.50
2022-08-29T07:54:35.368Z,101333.63
2022-08-29T07:57:02.011Z,101321.84
2022-08-29T07:59:30.910Z,101341.28
2022-08-29T08:01:57.552Z,101345.22
2022-08-29T08:04:24.318Z,101352.72
2022-08-29T08:06:50.948Z,101344.75
2022-08-29T08:09:17.560Z,101346.00
2022-08-29T08:11:44.238Z,101346.88
2022-08-29T08:14:11.529Z,101349.81
2022-08-29T08:16:39.305Z,101343.66
2022-08-29T08:19:13.088Z,101349.69
2022-08-29T08:21:46.936Z,101348.00
2022-08-29T08:24:19.716Z,101353.44
2022-08-29T08:26:48.834Z,101354.34
2022-08-29T08:29:15.915Z,101356.06
2022-08-29T08:31:49.401Z,101358.56
2022-08-29T08:34:17.824Z,101369.47
2022-08-29T08:36:45.839Z,101373.47
2022-08-29T08:39:13.825Z,101368.22
2022-08-29T08:42:05.452Z,101369.19
2022-08-29T08:45:01.784Z,101365.06
2022-08-29T08:47:30.972Z,101361.28
2022-08-29T08:50:06.592Z,101360.09
2022-08-29T08:52:38.236Z,101360.78
2022-08-29T08:55:14.909Z,101361.19
2022-08-29T08:57:52.315Z,101360.66
2022-08-29T09:00:19.036Z,101362.44
2022-08-29T09:03:13.331Z,101355.78
2022-08-29T09:06:10.400Z,101357.84
2022-08-29T09:08:52.665Z,101354.53
2022-08-29T09:12:04.781Z,101360.81
2022-08-29T09:14:46.915Z,101359.97
2022-08-29T09:17:42.092Z,101358.13
2022-08-29T09:20:13.725Z,101362.78
2022-08-29T09:22:43.010Z,101371.78
2022-08-29T09:25:12.711Z,101374.19
2022-08-29T09:27:39.487Z,101375.47
2022-08-29T09:30:10.783Z,101376.22
2022-08-29T09:32:56.275Z,101378.63
2022-08-29T09:35:27.432Z,101377.09
2022-08-29T09:38:17.336Z,101377.94
2022-08-29T09:41:03.613Z,101376.41
2022-08-29T09:43:50.395Z,101378.25
2022-08-29T09:46:20.936Z,101374.06
2022-08-29T09:48:51.135Z,101379.63
2022-08-29T09:51:33.174Z,101383.34
2022-08-29T09:54:27.190Z,101382.19
2022-08-29T09:57:18.119Z,101381.03
2022-08-29T10:00:05.738Z,101368.81
2022-08-29T10:02:43.777Z,101363.53
2022-08-29T10:05:27.937Z,101367.81
2022-08-29T10:07:55.322Z,101353.91
2022-08-29T10:10:30.046Z,101356.53
2022-08-29T10:13:15.919Z,101346.56
2022-08-29T10:16:01.351Z,101356.97
2022-08-29T10:18:46.992Z,101343.66
2022-08-29T10:21:54.983Z,101342.41
2022-08-29T10:24:30.653Z,101341.84
2022-08-29T10:27:15.717Z,101340.88
2022-08-29T10:30:01.722Z,101337.34
2022-08-29T10:32:48.667Z,101340.25
2022-08-29T10:35:30.903Z,101346.22
2022-08-29T10:37:59.340Z,101340.88
2022-08-29T10:41:04.394Z,101335.50
2022-08-29T10:44:09.595Z,101333.72
2022-08-29T10:46:41.978Z,101346.97
2022-08-29T10:49:16.344Z,101349.00
2022-08-29T10:52:07.844Z,101337.59
2022-08-29T10:54:58.846Z,101330.19
2022-08-29T10:57:41.391Z,101321.53
2022-08-29T11:00:21.141Z,101332.38
2022-08-29T11:03:09.096Z,101330.78
2022-08-29T11:05:44.169Z,101331.88
2022-08-29T11:08:27.342Z,101332.41
2022-08-29T11:10:54.185Z,101324.81
2022-08-29T11:13:28.571Z,101325.84
2022-08-29T11:16:19.035Z,101328.84
2022-08-29T11:19:00.199Z,101321.03
2022-08-29T11:21:56.738Z,101320.16
2022-08-29T11:24:29.730Z,101307.34
2022-08-29T11:27:31.507Z,101302.09
2022-08-29T11:30:10.907Z,101295.56
2022-08-29T11:32:50.837Z,101297.25
2022-08-29T11:36:00.112Z,101296.25
2022-08-29T11:38:36.439Z,101283.38
2022-08-29T11:44:11.583Z,101288.34
2022-08-29T11:46:52.898Z,101286.97
2022-08-29T11:49:38.036Z,101284.41
2022-08-29T11:52:11.032Z,101280.78
2022-08-29T11:54:39.001Z,101283.44
2022-08-29T11:57:05.674Z,101280.84
2022-08-29T11:59:56.385Z,101275.94
2022-08-29T12:02:31.676Z,101283.59
2022-08-29T12:05:46.132Z,101272.59
2022-08-29T12:08:36.913Z,101271.84
2022-08-29T12:11:05.577Z,101273.88
2022-08-29T12:13:50.717Z,101271.84
2022-08-29T12:16:27.095Z,101273.03
2022-08-29T12:18:56.512Z,101270.63
2022-08-29T12:21:39.266Z,101267.34
2022-08-29T12:24:27.510Z,101273.28
2022-08-29T12:26:54.789Z,101264.09
2022-08-29T12:29:27.720Z,101260.03
2022-08-29T12:32:39.784Z,101257.72
2022-08-29T12:35:23.195Z,101259.34
2022-08-29T12:38:18.970Z,101255.09
2022-08-29T12:41:00.915Z,101252.81
2022-08-29T12:43:42.781Z,101252.41
2022-08-29T12:46:34.880Z,101247.78
2022-08-29T12:49:29.654Z,101245.28
2022-08-29T12:52:01.472Z,101242.88
2022-08-29T12:54:41.846Z,101248.13
2022-08-29T12:57:19.482Z,101237.63
2022-08-29T12:59:53.056Z,101237.78
2022-08-29T13:02:38.900Z,101236.09
2022-08-29T13:05:19.107Z,101227.03
2022-08-29T13:08:10.987Z,101226.09
2022-08-29T13:11:02.173Z,101214.53
2022-08-29T13:13:30.105Z,101223.53
2022-08-29T13:16:02.646Z,101212.31
2022-08-29T13:18:31.098Z,101214.84
2022-08-29T13:21:06.715Z,101214.34
2022-08-29T13:23:45.672Z,101211.53
2022-08-29T13:26:13.176Z,101213.22
2022-08-29T13:28:47.570Z,101219.44
2022-08-29T13:31:14.504Z,101215.13
2022-08-29T13:34:04.286Z,101220.81
2022-08-29T13:36:38.991Z,101208.72
2022-08-29T13:39:19.060Z,101211.75
2022-08-29T13:42:09.469Z,101203.91
2022-08-29T13:45:07.427Z,101206.28
2022-08-29T13:47:52.168Z,101202.97
2022-08-29T13:50:19.091Z,101197.84
2022-08-29T13:52:46.268Z,101192.88
2022-08-29T13:55:13.053Z,101190.06
2022-08-29T13:57:42.335Z,101195.91
2022-08-29T14:00:12.192Z,101197.19
2022-08-29T14:02:44.236Z,101189.41
2022-08-29T14:05:13.842Z,101183.56
2022-08-29T14:07:43.589Z,101175.66
2022-08-29T14:10:11.746Z,101172.91
2022-08-29T14:12:38.688Z,101167.31
2022-08-29T14:15:09.714Z,101163.00
2022-08-29T14:17:40.603Z,101158.38
2022-08-29T14:20:09.790Z,101161.19
2022-08-29T14:22:37.276Z,101160.53
2022-08-29T14:25:05.732Z,101155.69
2022-08-29T14:27:32.756Z,101154.06
2022-08-29T14:30:00.855Z,101158.56
2022-08-29T14:32:27.660Z,101160.41
2022-08-29T14:34:54.601Z,101157.28
2022-08-29T14:37:21.555Z,101165.53
2022-08-29T14:39:49.967Z,101154.75
2022-08-29T14:42:18.459Z,101148.09
2022-08-29T14:44:45.382Z,101147.59
2022-08-29T14:47:12.693Z,101141.97
2022-08-29T14:49:40.118Z,101147.09
2022-08-29T14:52:07.226Z,101147.44
2022-08-29T14:54:34.428Z,101141.84
2022-08-29T14:57:01.137Z,101148.88
2022-08-29T14:59:28.065Z,101151.59
2022-08-29T15:01:55.491Z,101145.66
2022-08-29T15:04:36.399Z,101157.19
2022-08-29T15:07:11.658Z,101142.84
2022-08-29T15:09:40.081Z,101146.25
2022-08-29T15:12:06.955Z,101133.97
2022-08-29T15:14:34.727Z,101138.69
2022-08-29T15:17:02.383Z,101121.53
2022-08-29T15:22:16.372Z,101130.41
2022-08-29T15:24:43.276Z,101123.41
2022-08-29T15:27:10.416Z,101117.47
2022-08-29T15:29:40.475Z,101121.16
2022-08-29T15:32:07.895Z,101112.25
2022-08-29T15:34:34.915Z,101122.16
2022-08-29T15:37:02.575Z,101118.47
2022-08-29T15:39:29.769Z,101115.41
2022-08-29T15:41:58.801Z,101112.03
2022-08-29T15:44:27.046Z,101107.53
2022-08-29T15:46:56.949Z,101105.03
2022-08-29T15:49:25.656Z,101101.41
2022-08-29T15:51:53.075Z,101099.94
2022-08-29T15:54:20.999Z,101097.44
2022-08-29T15:56:48.396Z,101090.41
2022-08-29T15:59:16.275Z,101094.41
2022-08-29T16:01:47.208Z,101092.44
2022-08-29T16:04:16.160Z,101082.34
2022-08-29T16:06:43.347Z,101083.16
2022-08-29T16:09:15.881Z,101076.66
2022-08-29T16:11:44.953Z,101085.66
2022-08-29T16:14:57.416Z,101076.44
2022-08-29T16:16:59.603Z,101078.94
2022-08-29T16:19:26.393Z,101081.75
2022-08-29T16:21:53.956Z,101076.78
2022-08-29T16:24:22.918Z,101069.50
2022-08-29T16:26:49.661Z,101079.72
2022-08-29T16:29:18.056Z,101078.09
2022-08-29T16:31:53.992Z,101084.88
2022-08-29T16:34:22.818Z,101076.78
2022-08-29T16:36:49.784Z,101074.88
2022-08-29T16:39:16.541Z,101077.69
2022-08-29T16:41:44.474Z,101069.88
2022-08-29T16:44:11.289Z,101072.69
2022-08-29T16:46:38.432Z,101081.31
2022-08-29T16:49:05.474Z,101087.00
2022-08-29T16:51:32.089Z,101077.47
2022-08-29T16:53:59.328Z,101085.09
2022-08-29T16:56:27.273Z,101089.00
2022-08-29T16:59:00.158Z,101091.22
2022-08-29T17:01:35.325Z,101089.31
2022-08-29T17:04:04.336Z,101073.84
2022-08-29T17:06:31.836Z,101073.28
2022-08-29T17:08:59.154Z,101073.88
2022-08-29T17:11:26.554Z,101078.38
2022-08-29T17:13:54.514Z,101080.06
2022-08-29T17:16:22.572Z,101085.66
2022-08-29T17:18:50.080Z,101085.03
2022-08-29T17:21:17.067Z,101072.38
2022-08-29T17:23:44.684Z,101076.50
2022-08-29T17:26:13.345Z,101076.00
2022-08-29T17:28:40.390Z,101073.78
2022-08-29T17:31:07.882Z,101079.97
2022-08-29T17:33:35.009Z,101072.34
2022-08-29T17:36:04.540Z,101077.63
2022-08-29T17:38:31.926Z,101075.44
2022-08-29T17:41:02.327Z,101079.41
2022-08-29T17:43:32.776Z,101081.88
2022-08-29T17:45:59.508Z,101081.56
2022-08-29T17:48:26.262Z,101083.75
2022-08-29T17:50:53.870Z,101087.09
2022-08-29T17:53:21.232Z,101086.88
2022-08-29T17:55:50.494Z,101092.56
2022-08-29T17:58:19.310Z,101093.75
2022-08-29T18:00:46.724Z,101085.75
2022-08-29T18:03:13.899Z,101090.66
2022-08-29T18:05:40.547Z,101087.81
2022-08-29T18:08:07.187Z,101090.34
2022-08-29T18:10:33.868Z,101079.44
2022-08-29T18:13:00.544Z,101085.00
2022-08-29T18:15:28.346Z,101088.03
2022-08-29T18:17:55.613Z,101086.03
2022-08-29T18:20:23.194Z,101085.97
2022-08-29T18:22:50.068Z,101088.09
2022-08-29T18:25:22.298Z,101086.50
2022-08-29T18:27:50.526Z,101089.56
2022-08-29T18:30:17.585Z,101086.69
2022-08-29T18:32:44.324Z,101090.88
2022-08-29T18:35:11.686Z,101088.59
2022-08-29T18:37:38.733Z,101089.34
2022-08-29T18:40:08.180Z,101088.16
2022-08-29T18:42:41.072Z,101091.75
2022-08-29T18:45:10.061Z,101090.28
2022-08-29T18:47:37.191Z,101091.84
2022-08-29T18:50:24.978Z,101089.00
2022-08-29T18:52:53.077Z,101090.22
2022-08-29T18:55:20.101Z,101097.50
2022-08-29T18:57:48.093Z,101096.13
2022-08-29T19:00:16.028Z,101106.19
2022-08-29T19:02:43.080Z,101099.91
2022-08-29T19:05:10.385Z,101099.50
2022-08-29T19:07:37.854Z,101097.75
2022-08-29T19:10:06.508Z,101102.50
2022-08-29T19:12:33.821Z,101104.59
2022-08-29T19:15:00.584Z,101101.63
2022-08-29T19:17:27.559Z,101100.25
2022-08-29T19:20:12.872Z,101104.44
2022-08-29T19:22:39.613Z,101101.03
2022-08-29T19:25:08.595Z,101103.22
2022-08-29T19:27:43.755Z,101097.25
2022-08-29T19:30:11.594Z,101115.84
2022-08-29T19:32:38.490Z,101110.91
2022-08-29T19:35:05.850Z,101110.97
2022-08-29T19:37:33.047Z,101110.06
2022-08-29T19:39:59.808Z,101124.28
2022-08-29T19:42:28.153Z,101117.16
2022-08-29T19:44:55.257Z,101114.00
2022-08-29T19:47:23.398Z,101114.09
2022-08-29T19:49:50.949Z,101116.66
2022-08-29T19:52:18.015Z,101110.22
2022-08-29T19:54:44.796Z,101114.97
2022-08-29T19:57:14.762Z,101112.75
2022-08-29T19:59:43.643Z,101114.09
2022-08-29T20:02:10.525Z,101117.41
2022-08-29T20:04:38.288Z,101112.16
2022-08-29T20:07:05.469Z,101123.13
2022-08-29T20:09:32.342Z,101117.13
2022-08-29T20:11:59.369Z,101121.78
2022-08-29T20:14:26.355Z,101124.59
2022-08-29T20:16:53.820Z,101123.50
2022-08-29T20:19:21.433Z,101117.91
2022-08-29T20:21:49.810Z,101126.28
2022-08-29T20:24:17.124Z,101123.31
2022-08-29T20:26:49.468Z,101129.59
2022-08-29T20:29:20.599Z,101127.91
2022-08-29T20:31:47.687Z,101116.19
2022-08-29T20:34:14.874Z,101120.03
2022-08-29T20:37:17.755Z,101119.91
2022-08-29T20:39:46.906Z,101118.22
2022-08-29T20:42:16.710Z,101123.06
2022-08-29T20:44:45.210Z,101123.31
2022-08-29T20:47:16.213Z,101132.72
2022-08-29T20:49:43.919Z,101117.03
2022-08-29T20:52:13.013Z,101122.28
2022-08-29T20:54:40.209Z,101115.44
2022-08-29T20:57:07.154Z,101126.47
2022-08-29T20:59:39.441Z,101129.00
2022-08-29T21:02:08.320Z,101126.19
2022-08-29T21:04:54.276Z,101133.41
2022-08-29T21:07:21.056Z,101145.84
2022-08-29T21:09:50.426Z,101141.31
2022-08-29T21:12:18.623Z,101139.63
2022-08-29T21:14:46.202Z,101145.81
2022-08-29T21:17:14.774Z,101147.75
2022-08-29T21:19:43.035Z,101139.56
2022-08-29T21:22:12.977Z,101135.75
2022-08-29T21:24:40.065Z,101137.13
2022-08-29T21:27:06.831Z,101135.41
2022-08-29T21:29:33.855Z,101132.75
2022-08-29T21:32:00.481Z,101134.13
2022-08-29T21:34:27.320Z,101133.28
2022-08-29T21:36:54.433Z,101134.13
2022-08-29T21:39:28.626Z,101130.50
2022-08-29T21:41:57.308Z,101134.78
2022-08-29T21:44:23.994Z,101132.59
2022-08-29T21:46:50.891Z,101137.34
2022-08-29T21:49:19.572Z,101137.28
2022-08-29T21:51:47.204Z,101132.66
2022-08-29T21:54:15.844Z,101139.91
2022-08-29T21:56:43.774Z,101135.41
2022-08-29T21:59:11.169Z,101138.84
2022-08-29T22:01:38.985Z,101136.78
2022-08-29T22:04:09.439Z,101139.53
2022-08-29T22:06:39.757Z,101139.75
2022-08-29T22:09:10.541Z,101131.91
2022-08-29T22:11:38.472Z,101137.31
2022-08-29T22:14:07.228Z,101141.53
2022-08-29T22:16:35.565Z,101145.44
2022-08-29T22:19:04.089Z,101135.22
2022-08-29T22:21:35.766Z,101148.38
2022-08-29T22:24:02.922Z,101144.34
2022-08-29T22:26:29.667Z,101142.94
2022-08-29T22:28:57.092Z,101156.81
2022-08-29T22:31:24.338Z,101161.44
2022-08-29T22:33:51.633Z,101153.91
2022-08-29T22:36:19.189Z,101162.63
2022-08-29T22:38:47.134Z,101164.78
2022-08-29T22:41:22.030Z,101163.53
2022-08-29T22:43:54.678Z,101173.88
2022-08-29T22:46:36.060Z,101169.25
2022-08-29T22:49:02.914Z,101162.59
2022-08-29T22:51:29.684Z,101173.09
2022-08-29T22:54:15.091Z,101172.97
2022-08-29T22:56:43.293Z,101169.19
2022-08-29T22:59:10.576Z,101168.41
2022-08-29T23:01:43.543Z,101169.09
2022-08-29T23:04:11.153Z,101171.53
2022-08-29T23:06:37.857Z,101170.31
2022-08-29T23:09:05.426Z,101171.16
2022-08-29T23:11:32.620Z,101163.22
2022-08-29T23:13:59.406Z,101173.84
2022-08-29T23:16:27.016Z,101166.31
2022-08-29T23:18:53.679Z,101162.81
2022-08-29T23:21:22.802Z,101168.66
2022-08-29T23:23:50.755Z,101165.59
2022-08-29T23:26:18.444Z,101169.63
2022-08-29T23:28:45.498Z,101179.03
2022-08-29T23:31:14.576Z,101179.66
2022-08-29T23:33:41.916Z,101176.09
2022-08-29T23:36:09.066Z,101173.28
2022-08-29T23:38:36.137Z,101169.38
2022-08-29T23:41:02.880Z,101180.09
2022-08-29T23:43:31.536Z,101177.94
2022-08-29T23:46:04.326Z,101169.69
2022-08-29T23:48:31.783Z,101180.22
2022-08-29T23:50:58.822Z,101177.91
2022-08-29T23:53:25.703Z,101172.78
2022-08-29T23:55:52.762Z,101178.09
2022-08-29T23:58:19.483Z,101179.34
